sensor_id;sensor_type;location;lat;lon;timestamp;P1;durP1;ratioP1;P2;durP2;ratioP2
25503;SDS011;13410;52.114;5.718;2022-12-05T00:03:45;59.22;;;27.90;;
25503;SDS011;13410;52.114;5.718;2022-12-05T00:06:12;58.60;;;26.75;;
25503;SDS011;13410;52.114;5.718;2022-12-05T00:08:37;62.53;;;27.02;;
25503;SDS011;13410;52.114;5.718;2022-12-05T00:11:03;60.08;;;27.73;;
25503;SDS011;13410;52.114;5.718;2022-12-05T00:13:34;61.53;;;26.70;;
25503;SDS011;13410;52.114;5.718;2022-12-05T00:15:59;59.85;;;27.73;;
25503;SDS011;13410;52.114;5.718;2022-12-05T00:18:25;61.40;;;26.90;;
25503;SDS011;13410;52.114;5.718;2022-12-05T00:20:51;62.95;;;28.27;;
25503;SDS011;13410;52.114;5.718;2022-12-05T00:23:17;60.35;;;28.33;;
25503;SDS011;13410;52.114;5.718;2022-12-05T00:25:42;59.90;;;26.48;;
25503;SDS011;13410;52.114;5.718;2022-12-05T00:28:08;57.15;;;26.85;;
25503;SDS011;13410;52.114;5.718;2022-12-05T00:30:33;64.85;;;26.92;;
25503;SDS011;13410;52.114;5.718;2022-12-05T00:32:59;57.92;;;24.67;;
25503;SDS011;13410;52.114;5.718;2022-12-05T00:35:24;58.05;;;26.05;;
25503;SDS011;13410;52.114;5.718;2022-12-05T00:37:50;57.83;;;27.08;;
25503;SDS011;13410;52.114;5.718;2022-12-05T00:40:15;63.92;;;29.13;;
25503;SDS011;13410;52.114;5.718;2022-12-05T00:42:41;60.55;;;26.27;;
25503;SDS011;13410;52.114;5.718;2022-12-05T00:45:07;56.10;;;26.77;;
25503;SDS011;13410;52.114;5.718;2022-12-05T00:47:36;54.70;;;25.23;;
25503;SDS011;13410;52.114;5.718;2022-12-05T00:50:02;62.85;;;29.33;;
25503;SDS011;13410;52.114;5.718;2022-12-05T00:52:29;58.17;;;27.48;;
25503;SDS011;13410;52.114;5.718;2022-12-05T00:54:55;61.08;;;26.38;;
25503;SDS011;13410;52.114;5.718;2022-12-05T00:57:21;60.47;;;29.30;;
25503;SDS011;13410;52.114;5.718;2022-12-05T00:59:47;58.05;;;26.02;;
25503;SDS011;13410;52.114;5.718;2022-12-05T01:02:13;58.38;;;26.48;;
25503;SDS011;13410;52.114;5.718;2022-12-05T01:04:39;60.35;;;28.83;;
25503;SDS011;13410;52.114;5.718;2022-12-05T01:07:05;59.58;;;27.75;;
25503;SDS011;13410;52.114;5.718;2022-12-05T01:09:30;62.92;;;28.33;;
25503;SDS011;13410;52.114;5.718;2022-12-05T01:11:56;63.30;;;28.67;;
25503;SDS011;13410;52.114;5.718;2022-12-05T01:14:22;63.85;;;27.95;;
25503;SDS011;13410;52.114;5.718;2022-12-05T01:16:50;58.90;;;26.55;;
25503;SDS011;13410;52.114;5.718;2022-12-05T01:19:19;57.83;;;26.55;;
25503;SDS011;13410;52.114;5.718;2022-12-05T01:21:46;60.95;;;27.42;;
25503;SDS011;13410;52.114;5.718;2022-12-05T01:24:12;63.05;;;28.33;;
25503;SDS011;13410;52.114;5.718;2022-12-05T01:26:39;63.28;;;28.88;;
25503;SDS011;13410;52.114;5.718;2022-12-05T01:29:05;64.97;;;28.38;;
25503;SDS011;13410;52.114;5.718;2022-12-05T01:31:33;63.70;;;26.42;;
25503;SDS011;13410;52.114;5.718;2022-12-05T01:34:00;64.82;;;27.55;;
25503;SDS011;13410;52.114;5.718;2022-12-05T01:36:28;56.50;;;25.63;;
25503;SDS011;13410;52.114;5.718;2022-12-05T01:38:54;58.83;;;27.85;;
25503;SDS011;13410;52.114;5.718;2022-12-05T01:41:24;58.15;;;25.67;;
25503;SDS011;13410;52.114;5.718;2022-12-05T01:46:23;64.88;;;28.77;;
25503;SDS011;13410;52.114;5.718;2022-12-05T01:48:50;58.42;;;26.40;;
25503;SDS011;13410;52.114;5.718;2022-12-05T01:51:19;63.22;;;27.23;;
25503;SDS011;13410;52.114;5.718;2022-12-05T01:53:45;56.67;;;26.10;;
25503;SDS011;13410;52.114;5.718;2022-12-05T01:56:11;54.70;;;26.83;;
25503;SDS011;13410;52.114;5.718;2022-12-05T01:58:37;55.78;;;26.63;;
25503;SDS011;13410;52.114;5.718;2022-12-05T02:01:07;60.78;;;27.20;;
25503;SDS011;13410;52.114;5.718;2022-12-05T02:03:32;60.42;;;27.95;;
25503;SDS011;13410;52.114;5.718;2022-12-05T02:06:01;57.90;;;26.88;;
25503;SDS011;13410;52.114;5.718;2022-12-05T02:08:28;57.70;;;25.90;;
25503;SDS011;13410;52.114;5.718;2022-12-05T02:10:54;56.25;;;26.13;;
25503;SDS011;13410;52.114;5.718;2022-12-05T02:13:31;60.22;;;26.40;;
25503;SDS011;13410;52.114;5.718;2022-12-05T02:19:26;53.88;;;24.05;;
25503;SDS011;13410;52.114;5.718;2022-12-05T02:30:21;64.32;;;28.67;;
25503;SDS011;13410;52.114;5.718;2022-12-05T02:32:50;57.92;;;24.23;;
25503;SDS011;13410;52.114;5.718;2022-12-05T02:43:33;61.63;;;27.48;;
25503;SDS011;13410;52.114;5.718;2022-12-05T02:46:25;59.85;;;25.90;;
25503;SDS011;13410;52.114;5.718;2022-12-05T02:48:58;57.05;;;25.52;;
25503;SDS011;13410;52.114;5.718;2022-12-05T02:51:29;58.63;;;25.95;;
25503;SDS011;13410;52.114;5.718;2022-12-05T02:53:58;57.33;;;26.40;;
25503;SDS011;13410;52.114;5.718;2022-12-05T02:56:28;59.00;;;26.70;;
25503;SDS011;13410;52.114;5.718;2022-12-05T02:58:55;52.88;;;24.80;;
25503;SDS011;13410;52.114;5.718;2022-12-05T03:01:22;58.90;;;25.90;;
25503;SDS011;13410;52.114;5.718;2022-12-05T03:03:51;56.10;;;24.48;;
25503;SDS011;13410;52.114;5.718;2022-12-05T03:06:19;59.47;;;25.40;;
25503;SDS011;13410;52.114;5.718;2022-12-05T03:08:56;56.67;;;24.90;;
25503;SDS011;13410;52.114;5.718;2022-12-05T03:11:29;56.75;;;26.58;;
25503;SDS011;13410;52.114;5.718;2022-12-05T03:14:02;54.50;;;25.58;;
25503;SDS011;13410;52.114;5.718;2022-12-05T03:16:33;47.92;;;22.52;;
25503;SDS011;13410;52.114;5.718;2022-12-05T03:19:11;52.38;;;23.95;;
25503;SDS011;13410;52.114;5.718;2022-12-05T03:21:46;49.55;;;22.35;;
25503;SDS011;13410;52.114;5.718;2022-12-05T03:24:17;52.38;;;24.90;;
25503;SDS011;13410;52.114;5.718;2022-12-05T03:26:51;52.03;;;24.52;;
25503;SDS011;13410;52.114;5.718;2022-12-05T03:34:49;53.38;;;24.00;;
25503;SDS011;13410;52.114;5.718;2022-12-05T03:40:14;48.33;;;22.38;;
25503;SDS011;13410;52.114;5.718;2022-12-05T03:42:55;52.47;;;24.70;;
25503;SDS011;13410;52.114;5.718;2022-12-05T03:45:32;52.30;;;23.55;;
25503;SDS011;13410;52.114;5.718;2022-12-05T03:48:07;47.05;;;20.50;;
25503;SDS011;13410;52.114;5.718;2022-12-05T03:50:39;53.13;;;24.67;;
25503;SDS011;13410;52.114;5.718;2022-12-05T03:53:09;48.90;;;23.88;;
25503;SDS011;13410;52.114;5.718;2022-12-05T03:55:58;43.38;;;19.50;;
25503;SDS011;13410;52.114;5.718;2022-12-05T03:58:31;47.58;;;22.95;;
25503;SDS011;13410;52.114;5.718;2022-12-05T04:01:04;47.13;;;22.77;;
25503;SDS011;13410;52.114;5.718;2022-12-05T04:03:34;50.53;;;23.25;;
25503;SDS011;13410;52.114;5.718;2022-12-05T04:06:09;49.67;;;23.58;;
25503;SDS011;13410;52.114;5.718;2022-12-05T04:08:43;48.90;;;23.45;;
25503;SDS011;13410;52.114;5.718;2022-12-05T04:11:16;52.08;;;24.33;;
25503;SDS011;13410;52.114;5.718;2022-12-05T04:13:52;52.00;;;24.83;;
25503;SDS011;13410;52.114;5.718;2022-12-05T04:16:35;51.65;;;25.23;;
25503;SDS011;13410;52.114;5.718;2022-12-05T04:22:29;48.47;;;23.95;;
25503;SDS011;13410;52.114;5.718;2022-12-05T04:24:57;44.63;;;23.13;;
25503;SDS011;13410;52.114;5.718;2022-12-05T04:30:44;47.28;;;22.67;;
25503;SDS011;13410;52.114;5.718;2022-12-05T04:36:02;46.38;;;23.17;;
25503;SDS011;13410;52.114;5.718;2022-12-05T04:38:39;53.10;;;25.02;;
25503;SDS011;13410;52.114;5.718;2022-12-05T04:41:13;48.88;;;24.27;;
25503;SDS011;13410;52.114;5.718;2022-12-05T04:43:44;55.15;;;25.67;;
25503;SDS011;13410;52.114;5.718;2022-12-05T04:46:13;49.33;;;24.05;;
25503;SDS011;13410;52.114;5.718;2022-12-05T04:48:42;52.38;;;25.60;;
25503;SDS011;13410;52.114;5.718;2022-12-05T04:51:12;50.15;;;24.95;;
25503;SDS011;13410;52.114;5.718;2022-12-05T04:53:42;49.33;;;24.38;;
25503;SDS011;13410;52.114;5.718;2022-12-05T04:56:09;48.97;;;23.73;;
25503;SDS011;13410;52.114;5.718;2022-12-05T04:58:38;45.30;;;23.67;;
25503;SDS011;13410;52.114;5.718;2022-12-05T05:01:06;51.10;;;24.08;;
25503;SDS011;13410;52.114;5.718;2022-12-05T05:03:50;46.78;;;24.55;;
25503;SDS011;13410;52.114;5.718;2022-12-05T05:06:19;48.30;;;23.92;;
25503;SDS011;13410;52.114;5.718;2022-12-05T05:08:49;47.42;;;24.17;;
25503;SDS011;13410;52.114;5.718;2022-12-05T05:11:23;48.38;;;25.40;;
25503;SDS011;13410;52.114;5.718;2022-12-05T05:13:50;44.78;;;23.17;;
25503;SDS011;13410;52.114;5.718;2022-12-05T05:16:26;48.42;;;24.83;;
25503;SDS011;13410;52.114;5.718;2022-12-05T05:18:59;46.85;;;23.13;;
25503;SDS011;13410;52.114;5.718;2022-12-05T05:21:35;49.30;;;24.10;;
25503;SDS011;13410;52.114;5.718;2022-12-05T05:24:03;48.25;;;22.73;;
25503;SDS011;13410;52.114;5.718;2022-12-05T05:26:30;49.00;;;24.65;;
25503;SDS011;13410;52.114;5.718;2022-12-05T05:28:58;51.53;;;25.10;;
25503;SDS011;13410;52.114;5.718;2022-12-05T05:31:24;45.55;;;23.98;;
25503;SDS011;13410;52.114;5.718;2022-12-05T05:33:51;47.90;;;24.00;;
25503;SDS011;13410;52.114;5.718;2022-12-05T05:36:18;46.47;;;23.40;;
25503;SDS011;13410;52.114;5.718;2022-12-05T05:38:45;48.08;;;22.73;;
25503;SDS011;13410;52.114;5.718;2022-12-05T05:41:16;47.58;;;23.38;;
25503;SDS011;13410;52.114;5.718;2022-12-05T05:43:43;47.45;;;24.80;;
25503;SDS011;13410;52.114;5.718;2022-12-05T05:46:10;45.40;;;24.25;;
25503;SDS011;13410;52.114;5.718;2022-12-05T05:48:36;45.58;;;22.13;;
25503;SDS011;13410;52.114;5.718;2022-12-05T05:51:02;51.22;;;24.23;;
25503;SDS011;13410;52.114;5.718;2022-12-05T05:53:29;49.53;;;23.67;;
25503;SDS011;13410;52.114;5.718;2022-12-05T05:55:55;42.42;;;22.98;;
25503;SDS011;13410;52.114;5.718;2022-12-05T05:58:21;45.17;;;22.67;;
25503;SDS011;13410;52.114;5.718;2022-12-05T06:00:46;49.75;;;24.00;;
25503;SDS011;13410;52.114;5.718;2022-12-05T06:03:12;45.58;;;21.13;;
25503;SDS011;13410;52.114;5.718;2022-12-05T06:05:38;42.95;;;22.17;;
25503;SDS011;13410;52.114;5.718;2022-12-05T06:08:03;43.50;;;23.25;;
25503;SDS011;13410;52.114;5.718;2022-12-05T06:10:29;48.25;;;24.30;;
25503;SDS011;13410;52.114;5.718;2022-12-05T06:12:55;49.55;;;24.08;;
25503;SDS011;13410;52.114;5.718;2022-12-05T06:15:21;46.35;;;23.98;;
25503;SDS011;13410;52.114;5.718;2022-12-05T06:17:47;49.00;;;23.70;;
25503;SDS011;13410;52.114;5.718;2022-12-05T06:20:13;45.08;;;22.70;;
25503;SDS011;13410;52.114;5.718;2022-12-05T06:22:38;49.38;;;23.67;;
25503;SDS011;13410;52.114;5.718;2022-12-05T06:25:04;47.33;;;23.80;;
25503;SDS011;13410;52.114;5.718;2022-12-05T06:27:30;50.08;;;23.50;;
25503;SDS011;13410;52.114;5.718;2022-12-05T06:29:56;49.78;;;23.02;;
25503;SDS011;13410;52.114;5.718;2022-12-05T06:32:21;46.50;;;22.98;;
25503;SDS011;13410;52.114;5.718;2022-12-05T06:34:47;49.13;;;23.85;;
25503;SDS011;13410;52.114;5.718;2022-12-05T06:37:13;45.25;;;23.10;;
25503;SDS011;13410;52.114;5.718;2022-12-05T06:39:39;43.78;;;20.55;;
25503;SDS011;13410;52.114;5.718;2022-12-05T06:42:04;59.25;;;25.02;;
25503;SDS011;13410;52.114;5.718;2022-12-05T06:44:30;53.30;;;23.85;;
25503;SDS011;13410;52.114;5.718;2022-12-05T06:46:56;42.65;;;21.95;;
25503;SDS011;13410;52.114;5.718;2022-12-05T06:49:23;42.35;;;21.83;;
25503;SDS011;13410;52.114;5.718;2022-12-05T06:51:51;44.40;;;22.58;;
25503;SDS011;13410;52.114;5.718;2022-12-05T06:54:17;41.80;;;22.60;;
25503;SDS011;13410;52.114;5.718;2022-12-05T06:56:43;43.92;;;22.85;;
25503;SDS011;13410;52.114;5.718;2022-12-05T06:59:09;44.97;;;23.45;;
25503;SDS011;13410;52.114;5.718;2022-12-05T07:01:35;45.03;;;22.70;;
25503;SDS011;13410;52.114;5.718;2022-12-05T07:04:06;50.47;;;23.35;;
25503;SDS011;13410;52.114;5.718;2022-12-05T07:06:32;46.15;;;22.70;;
25503;SDS011;13410;52.114;5.718;2022-12-05T07:08:58;45.25;;;22.45;;
25503;SDS011;13410;52.114;5.718;2022-12-05T07:11:24;45.10;;;22.98;;
25503;SDS011;13410;52.114;5.718;2022-12-05T07:13:50;45.33;;;21.95;;
25503;SDS011;13410;52.114;5.718;2022-12-05T07:16:15;45.85;;;23.25;;
25503;SDS011;13410;52.114;5.718;2022-12-05T07:18:41;42.35;;;21.80;;
25503;SDS011;13410;52.114;5.718;2022-12-05T07:21:09;44.22;;;22.10;;
25503;SDS011;13410;52.114;5.718;2022-12-05T07:23:36;46.75;;;22.42;;
25503;SDS011;13410;52.114;5.718;2022-12-05T07:26:05;42.63;;;22.02;;
25503;SDS011;13410;52.114;5.718;2022-12-05T07:28:32;45.80;;;22.60;;
25503;SDS011;13410;52.114;5.718;2022-12-05T07:31:01;45.33;;;21.42;;
25503;SDS011;13410;52.114;5.718;2022-12-05T07:33:32;47.25;;;24.02;;
25503;SDS011;13410;52.114;5.718;2022-12-05T07:35:59;43.85;;;21.40;;
25503;SDS011;13410;52.114;5.718;2022-12-05T07:38:25;54.53;;;25.40;;
25503;SDS011;13410;52.114;5.718;2022-12-05T07:40:51;46.45;;;23.65;;
25503;SDS011;13410;52.114;5.718;2022-12-05T07:43:16;46.90;;;24.00;;
25503;SDS011;13410;52.114;5.718;2022-12-05T07:45:42;45.63;;;22.65;;
25503;SDS011;13410;52.114;5.718;2022-12-05T07:48:08;47.00;;;22.20;;
25503;SDS011;13410;52.114;5.718;2022-12-05T07:50:33;50.72;;;23.58;;
25503;SDS011;13410;52.114;5.718;2022-12-05T07:53:00;47.88;;;23.70;;
25503;SDS011;13410;52.114;5.718;2022-12-05T07:55:26;44.10;;;22.90;;
25503;SDS011;13410;52.114;5.718;2022-12-05T07:57:51;45.10;;;23.63;;
25503;SDS011;13410;52.114;5.718;2022-12-05T08:00:17;46.38;;;20.63;;
25503;SDS011;13410;52.114;5.718;2022-12-05T08:02:43;44.40;;;21.67;;
25503;SDS011;13410;52.114;5.718;2022-12-05T08:05:12;52.55;;;25.67;;
25503;SDS011;13410;52.114;5.718;2022-12-05T08:07:38;43.88;;;22.65;;
25503;SDS011;13410;52.114;5.718;2022-12-05T08:10:04;40.28;;;20.05;;
25503;SDS011;13410;52.114;5.718;2022-12-05T08:12:30;47.20;;;21.73;;
25503;SDS011;13410;52.114;5.718;2022-12-05T08:14:56;46.00;;;21.58;;
25503;SDS011;13410;52.114;5.718;2022-12-05T08:17:21;44.05;;;21.10;;
25503;SDS011;13410;52.114;5.718;2022-12-05T08:19:47;43.38;;;20.85;;
25503;SDS011;13410;52.114;5.718;2022-12-05T08:22:12;42.00;;;20.65;;
25503;SDS011;13410;52.114;5.718;2022-12-05T08:24:38;44.22;;;21.33;;
25503;SDS011;13410;52.114;5.718;2022-12-05T08:27:04;47.15;;;24.88;;
25503;SDS011;13410;52.114;5.718;2022-12-05T08:29:29;55.67;;;26.83;;
25503;SDS011;13410;52.114;5.718;2022-12-05T08:31:55;46.63;;;22.63;;
25503;SDS011;13410;52.114;5.718;2022-12-05T08:34:21;44.58;;;21.75;;
25503;SDS011;13410;52.114;5.718;2022-12-05T08:36:47;46.47;;;23.00;;
25503;SDS011;13410;52.114;5.718;2022-12-05T08:39:13;44.47;;;22.92;;
25503;SDS011;13410;52.114;5.718;2022-12-05T08:41:40;44.67;;;22.40;;
25503;SDS011;13410;52.114;5.718;2022-12-05T08:44:07;47.55;;;23.40;;
25503;SDS011;13410;52.114;5.718;2022-12-05T08:46:35;43.30;;;22.23;;
25503;SDS011;13410;52.114;5.718;2022-12-05T08:49:02;42.88;;;21.40;;
25503;SDS011;13410;52.114;5.718;2022-12-05T08:51:28;45.63;;;21.13;;
25503;SDS011;13410;52.114;5.718;2022-12-05T08:53:54;46.45;;;22.23;;
25503;SDS011;13410;52.114;5.718;2022-12-05T08:56:20;43.70;;;21.85;;
25503;SDS011;13410;52.114;5.718;2022-12-05T08:58:46;43.40;;;22.42;;
25503;SDS011;13410;52.114;5.718;2022-12-05T09:01:13;44.30;;;22.15;;
25503;SDS011;13410;52.114;5.718;2022-12-05T09:03:44;47.22;;;22.35;;
25503;SDS011;13410;52.114;5.718;2022-12-05T09:06:21;44.65;;;21.95;;
25503;SDS011;13410;52.114;5.718;2022-12-05T09:08:48;44.28;;;20.88;;
25503;SDS011;13410;52.114;5.718;2022-12-05T09:11:18;44.58;;;22.20;;
25503;SDS011;13410;52.114;5.718;2022-12-05T09:13:48;43.85;;;21.58;;
25503;SDS011;13410;52.114;5.718;2022-12-05T09:16:16;46.05;;;21.85;;
25503;SDS011;13410;52.114;5.718;2022-12-05T09:18:43;64.05;;;31.50;;
25503;SDS011;13410;52.114;5.718;2022-12-05T09:21:11;48.28;;;24.05;;
25503;SDS011;13410;52.114;5.718;2022-12-05T09:23:38;43.58;;;23.05;;
25503;SDS011;13410;52.114;5.718;2022-12-05T09:26:05;42.70;;;22.20;;
25503;SDS011;13410;52.114;5.718;2022-12-05T09:28:33;43.38;;;22.25;;
25503;SDS011;13410;52.114;5.718;2022-12-05T09:31:00;46.05;;;23.85;;
25503;SDS011;13410;52.114;5.718;2022-12-05T09:33:28;43.08;;;21.77;;
25503;SDS011;13410;52.114;5.718;2022-12-05T09:35:55;46.75;;;21.70;;
25503;SDS011;13410;52.114;5.718;2022-12-05T09:38:21;40.78;;;21.77;;
25503;SDS011;13410;52.114;5.718;2022-12-05T09:40:53;48.92;;;20.95;;
25503;SDS011;13410;52.114;5.718;2022-12-05T09:43:35;43.15;;;21.13;;
25503;SDS011;13410;52.114;5.718;2022-12-05T09:46:14;48.10;;;21.45;;
25503;SDS011;13410;52.114;5.718;2022-12-05T09:49:04;51.70;;;20.83;;
25503;SDS011;13410;52.114;5.718;2022-12-05T09:51:31;40.25;;;20.30;;
25503;SDS011;13410;52.114;5.718;2022-12-05T09:53:57;41.17;;;20.00;;
25503;SDS011;13410;52.114;5.718;2022-12-05T09:56:26;43.15;;;22.35;;
25503;SDS011;13410;52.114;5.718;2022-12-05T09:58:54;44.28;;;22.88;;
25503;SDS011;13410;52.114;5.718;2022-12-05T10:01:26;42.05;;;21.23;;
25503;SDS011;13410;52.114;5.718;2022-12-05T10:04:11;34.67;;;18.60;;
25503;SDS011;13410;52.114;5.718;2022-12-05T10:06:48;50.17;;;27.33;;
25503;SDS011;13410;52.114;5.718;2022-12-05T10:14:46;38.33;;;18.42;;
25503;SDS011;13410;52.114;5.718;2022-12-05T10:17:24;38.35;;;19.90;;
25503;SDS011;13410;52.114;5.718;2022-12-05T10:19:57;37.95;;;21.13;;
25503;SDS011;13410;52.114;5.718;2022-12-05T10:22:27;34.85;;;19.13;;
25503;SDS011;13410;52.114;5.718;2022-12-05T10:25:04;42.53;;;18.77;;
25503;SDS011;13410;52.114;5.718;2022-12-05T10:27:37;39.75;;;19.20;;
25503;SDS011;13410;52.114;5.718;2022-12-05T10:30:13;29.90;;;16.17;;
25503;SDS011;13410;52.114;5.718;2022-12-05T10:32:54;33.78;;;17.80;;
25503;SDS011;13410;52.114;5.718;2022-12-05T10:35:23;32.63;;;17.25;;
25503;SDS011;13410;52.114;5.718;2022-12-05T10:37:51;30.95;;;17.38;;
25503;SDS011;13410;52.114;5.718;2022-12-05T10:40:41;37.60;;;17.80;;
25503;SDS011;13410;52.114;5.718;2022-12-05T10:43:13;27.70;;;16.25;;
25503;SDS011;13410;52.114;5.718;2022-12-05T10:45:47;32.80;;;17.92;;
25503;SDS011;13410;52.114;5.718;2022-12-05T10:48:13;29.13;;;16.63;;
25503;SDS011;13410;52.114;5.718;2022-12-05T10:50:42;52.40;;;28.13;;
25503;SDS011;13410;52.114;5.718;2022-12-05T10:53:23;34.67;;;19.05;;
25503;SDS011;13410;52.114;5.718;2022-12-05T10:55:52;33.53;;;19.23;;
25503;SDS011;13410;52.114;5.718;2022-12-05T10:58:19;33.08;;;20.20;;
25503;SDS011;13410;52.114;5.718;2022-12-05T11:00:49;26.48;;;16.23;;
25503;SDS011;13410;52.114;5.718;2022-12-05T11:03:33;31.60;;;17.95;;
25503;SDS011;13410;52.114;5.718;2022-12-05T11:06:12;27.52;;;15.82;;
25503;SDS011;13410;52.114;5.718;2022-12-05T11:08:53;27.58;;;16.25;;
25503;SDS011;13410;52.114;5.718;2022-12-05T11:11:26;31.15;;;18.88;;
25503;SDS011;13410;52.114;5.718;2022-12-05T11:13:54;28.42;;;16.92;;
25503;SDS011;13410;52.114;5.718;2022-12-05T11:16:22;24.52;;;15.48;;
25503;SDS011;13410;52.114;5.718;2022-12-05T11:18:49;27.63;;;15.88;;
25503;SDS011;13410;52.114;5.718;2022-12-05T11:21:15;24.13;;;14.15;;
25503;SDS011;13410;52.114;5.718;2022-12-05T11:23:43;28.25;;;16.30;;
25503;SDS011;13410;52.114;5.718;2022-12-05T11:26:17;21.00;;;14.00;;
25503;SDS011;13410;52.114;5.718;2022-12-05T11:29:02;23.73;;;14.70;;
25503;SDS011;13410;52.114;5.718;2022-12-05T11:31:29;21.27;;;13.25;;
25503;SDS011;13410;52.114;5.718;2022-12-05T11:36:45;21.88;;;13.77;;
25503;SDS011;13410;52.114;5.718;2022-12-05T11:39:16;15.95;;;9.80;;
25503;SDS011;13410;52.114;5.718;2022-12-05T11:50:02;14.03;;;9.00;;
25503;SDS011;13410;52.114;5.718;2022-12-05T11:52:49;11.40;;;7.47;;
25503;SDS011;13410;52.114;5.718;2022-12-05T12:04:18;13.50;;;8.43;;
25503;SDS011;13410;52.114;5.718;2022-12-05T12:12:50;7.70;;;5.13;;
25503;SDS011;13410;52.114;5.718;2022-12-05T12:26:03;12.20;;;7.65;;
25503;SDS011;13410;52.114;5.718;2022-12-05T12:34:37;8.13;;;4.78;;
25503;SDS011;13410;52.114;5.718;2022-12-05T12:40:29;7.53;;;5.10;;
25503;SDS011;13410;52.114;5.718;2022-12-05T12:43:05;5.00;;;3.03;;
25503;SDS011;13410;52.114;5.718;2022-12-05T12:51:56;12.77;;;9.23;;
25503;SDS011;13410;52.114;5.718;2022-12-05T13:00:02;5.53;;;3.57;;
25503;SDS011;13410;52.114;5.718;2022-12-05T13:08:19;26.83;;;17.92;;
25503;SDS011;13410;52.114;5.718;2022-12-05T13:10:58;7.88;;;4.47;;
25503;SDS011;13410;52.114;5.718;2022-12-05T13:13:32;12.15;;;8.18;;
25503;SDS011;13410;52.114;5.718;2022-12-05T13:16:01;20.92;;;10.73;;
25503;SDS011;13410;52.114;5.718;2022-12-05T13:18:31;8.90;;;6.32;;
25503;SDS011;13410;52.114;5.718;2022-12-05T13:20:59;5.35;;;3.38;;
25503;SDS011;13410;52.114;5.718;2022-12-05T13:23:51;4.18;;;2.75;;
25503;SDS011;13410;52.114;5.718;2022-12-05T13:26:17;5.00;;;3.17;;
25503;SDS011;13410;52.114;5.718;2022-12-05T13:28:47;4.45;;;2.80;;
25503;SDS011;13410;52.114;5.718;2022-12-05T13:31:36;5.10;;;3.10;;
25503;SDS011;13410;52.114;5.718;2022-12-05T13:34:05;6.90;;;3.53;;
25503;SDS011;13410;52.114;5.718;2022-12-05T13:36:51;5.20;;;3.30;;
25503;SDS011;13410;52.114;5.718;2022-12-05T13:39:36;4.53;;;3.00;;
25503;SDS011;13410;52.114;5.718;2022-12-05T13:42:22;4.22;;;2.83;;
25503;SDS011;13410;52.114;5.718;2022-12-05T13:45:04;5.78;;;3.13;;
25503;SDS011;13410;52.114;5.718;2022-12-05T13:50:33;4.60;;;2.95;;
25503;SDS011;13410;52.114;5.718;2022-12-05T13:56:00;5.28;;;3.40;;
25503;SDS011;13410;52.114;5.718;2022-12-05T14:17:31;41.25;;;25.45;;
25503;SDS011;13410;52.114;5.718;2022-12-05T14:20:24;26.55;;;17.73;;
25503;SDS011;13410;52.114;5.718;2022-12-05T14:37:02;8.82;;;5.00;;
25503;SDS011;13410;52.114;5.718;2022-12-05T14:39:40;9.15;;;6.50;;
25503;SDS011;13410;52.114;5.718;2022-12-05T14:42:19;9.68;;;6.15;;
25503;SDS011;13410;52.114;5.718;2022-12-05T14:47:55;10.50;;;5.40;;
25503;SDS011;13410;52.114;5.718;2022-12-05T14:53:13;8.65;;;5.95;;
25503;SDS011;13410;52.114;5.718;2022-12-05T14:55:40;9.07;;;6.53;;
25503;SDS011;13410;52.114;5.718;2022-12-05T15:01:07;9.80;;;5.25;;
25503;SDS011;13410;52.114;5.718;2022-12-05T15:09:29;8.05;;;5.07;;
25503;SDS011;13410;52.114;5.718;2022-12-05T15:14:53;5.97;;;4.07;;
25503;SDS011;13410;52.114;5.718;2022-12-05T15:17:23;10.80;;;5.63;;
25503;SDS011;13410;52.114;5.718;2022-12-05T15:19:58;11.68;;;6.72;;
25503;SDS011;13410;52.114;5.718;2022-12-05T15:22:28;7.90;;;4.63;;
25503;SDS011;13410;52.114;5.718;2022-12-05T15:24:57;9.32;;;6.10;;
25503;SDS011;13410;52.114;5.718;2022-12-05T15:28:04;7.80;;;5.03;;
25503;SDS011;13410;52.114;5.718;2022-12-05T15:30:41;7.05;;;4.72;;
25503;SDS011;13410;52.114;5.718;2022-12-05T15:33:10;9.25;;;5.45;;
25503;SDS011;13410;52.114;5.718;2022-12-05T15:35:36;8.43;;;4.32;;
25503;SDS011;13410;52.114;5.718;2022-12-05T15:38:10;6.47;;;4.55;;
25503;SDS011;13410;52.114;5.718;2022-12-05T15:40:44;16.23;;;10.45;;
25503;SDS011;13410;52.114;5.718;2022-12-05T15:43:31;14.02;;;7.80;;
25503;SDS011;13410;52.114;5.718;2022-12-05T15:46:07;17.33;;;12.82;;
25503;SDS011;13410;52.114;5.718;2022-12-05T15:48:44;8.52;;;6.30;;
25503;SDS011;13410;52.114;5.718;2022-12-05T15:51:10;16.98;;;9.07;;
25503;SDS011;13410;52.114;5.718;2022-12-05T15:53:38;15.35;;;9.68;;
25503;SDS011;13410;52.114;5.718;2022-12-05T15:58:48;9.63;;;6.72;;
25503;SDS011;13410;52.114;5.718;2022-12-05T16:01:24;13.18;;;8.75;;
25503;SDS011;13410;52.114;5.718;2022-12-05T16:09:05;7.80;;;5.05;;
25503;SDS011;13410;52.114;5.718;2022-12-05T16:14:02;13.57;;;7.13;;
25503;SDS011;13410;52.114;5.718;2022-12-05T16:16:35;14.52;;;10.35;;
25503;SDS011;13410;52.114;5.718;2022-12-05T16:19:11;8.48;;;5.13;;
25503;SDS011;13410;52.114;5.718;2022-12-05T16:21:44;8.98;;;5.35;;
25503;SDS011;13410;52.114;5.718;2022-12-05T16:24:20;7.63;;;5.25;;
25503;SDS011;13410;52.114;5.718;2022-12-05T16:32:35;14.90;;;8.57;;
25503;SDS011;13410;52.114;5.718;2022-12-05T16:35:02;11.18;;;6.78;;
25503;SDS011;13410;52.114;5.718;2022-12-05T16:37:48;9.32;;;6.10;;
25503;SDS011;13410;52.114;5.718;2022-12-05T16:40:23;9.30;;;5.70;;
25503;SDS011;13410;52.114;5.718;2022-12-05T16:43:02;8.98;;;5.43;;
25503;SDS011;13410;52.114;5.718;2022-12-05T16:45:37;9.05;;;5.80;;
25503;SDS011;13410;52.114;5.718;2022-12-05T16:48:12;10.43;;;6.15;;
25503;SDS011;13410;52.114;5.718;2022-12-05T16:50:41;9.55;;;6.20;;
25503;SDS011;13410;52.114;5.718;2022-12-05T16:55:32;13.73;;;10.20;;
25503;SDS011;13410;52.114;5.718;2022-12-05T16:58:01;14.75;;;9.55;;
25503;SDS011;13410;52.114;5.718;2022-12-05T17:00:33;13.02;;;5.97;;
25503;SDS011;13410;52.114;5.718;2022-12-05T17:02:58;10.05;;;5.57;;
25503;SDS011;13410;52.114;5.718;2022-12-05T17:05:24;9.32;;;5.30;;
25503;SDS011;13410;52.114;5.718;2022-12-05T17:07:50;8.55;;;5.25;;
25503;SDS011;13410;52.114;5.718;2022-12-05T17:10:16;10.82;;;5.80;;
25503;SDS011;13410;52.114;5.718;2022-12-05T17:12:44;9.65;;;5.28;;
25503;SDS011;13410;52.114;5.718;2022-12-05T17:15:17;8.32;;;5.00;;
25503;SDS011;13410;52.114;5.718;2022-12-05T17:17:44;9.52;;;5.93;;
25503;SDS011;13410;52.114;5.718;2022-12-05T17:20:10;9.35;;;5.07;;
25503;SDS011;13410;52.114;5.718;2022-12-05T17:22:36;9.35;;;5.50;;
25503;SDS011;13410;52.114;5.718;2022-12-05T17:25:16;7.75;;;5.45;;
25503;SDS011;13410;52.114;5.718;2022-12-05T17:27:47;8.00;;;5.20;;
25503;SDS011;13410;52.114;5.718;2022-12-05T17:30:12;7.57;;;5.15;;
25503;SDS011;13410;52.114;5.718;2022-12-05T17:32:38;8.23;;;4.68;;
25503;SDS011;13410;52.114;5.718;2022-12-05T17:35:11;8.88;;;4.95;;
25503;SDS011;13410;52.114;5.718;2022-12-05T17:37:39;9.30;;;4.57;;
25503;SDS011;13410;52.114;5.718;2022-12-05T17:40:05;7.32;;;4.30;;
25503;SDS011;13410;52.114;5.718;2022-12-05T17:42:34;7.60;;;4.90;;
25503;SDS011;13410;52.114;5.718;2022-12-05T17:44:59;8.23;;;4.50;;
25503;SDS011;13410;52.114;5.718;2022-12-05T17:47:25;6.50;;;4.13;;
25503;SDS011;13410;52.114;5.718;2022-12-05T17:49:51;9.23;;;4.68;;